createdAt,value
2023-06-15T00:01:24.396Z,69.60
2023-06-15T00:03:52.631Z,70.40
2023-06-15T00:06:21.153Z,70.10
2023-06-15T00:08:49.238Z,70.70
2023-06-15T00:11:17.208Z,71.00
2023-06-15T00:13:45.190Z,71.10
2023-06-15T00:16:15.407Z,72.10
2023-06-15T00:18:48.846Z,72.40
2023-06-15T00:21:17.499Z,71.90
2023-06-15T00:23:47.301Z,73.10
2023-06-15T00:26:15.403Z,73.70
2023-06-15T00:28:43.707Z,73.90
2023-06-15T00:31:11.727Z,75.10
2023-06-15T00:33:39.720Z,74.30
2023-06-15T00:36:13.226Z,74.30
2023-06-15T00:38:41.716Z,74.90
2023-06-15T00:41:09.731Z,76.90
2023-06-15T00:43:37.803Z,75.80
2023-06-15T00:46:06.201Z,76.80
2023-06-15T00:48:34.475Z,77.40
2023-06-15T00:51:02.744Z,77.00
2023-06-15T00:53:33.378Z,79.10
2023-06-15T00:56:01.692Z,78.30
2023-06-15T00:58:29.858Z,78.70
2023-06-15T01:00:57.865Z,81.60
2023-06-15T01:03:26.048Z,82.40
2023-06-15T01:05:58.586Z,80.30
2023-06-15T01:08:28.764Z,79.70
2023-06-15T01:10:58.769Z,81.10
2023-06-15T01:13:28.359Z,80.00
2023-06-15T01:16:00.120Z,80.50
2023-06-15T01:18:30.935Z,80.70
2023-06-15T01:21:02.760Z,80.50
2023-06-15T01:23:45.596Z,81.20
2023-06-15T01:26:16.320Z,82.40
2023-06-15T01:28:48.870Z,82.40
2023-06-15T01:31:17.687Z,82.20
2023-06-15T01:33:47.323Z,82.40
2023-06-15T01:36:15.693Z,83.10
2023-06-15T01:38:45.151Z,82.40
2023-06-15T01:41:15.884Z,82.40
2023-06-15T01:43:44.466Z,83.50
2023-06-15T01:46:12.848Z,81.90
2023-06-15T01:48:41.201Z,82.80
2023-06-15T01:51:09.390Z,81.50
2023-06-15T01:53:37.990Z,81.30
2023-06-15T01:56:06.604Z,81.20
2023-06-15T01:58:36.626Z,80.80
2023-06-15T02:01:04.572Z,80.80
2023-06-15T02:03:33.388Z,82.20
2023-06-15T02:06:01.327Z,82.00
2023-06-15T02:08:29.289Z,81.90
2023-06-15T02:10:57.261Z,82.20
2023-06-15T02:13:25.326Z,82.20
2023-06-15T02:15:55.141Z,84.00
2023-06-15T02:18:23.784Z,84.30
2023-06-15T02:20:52.254Z,84.20
2023-06-15T02:23:21.307Z,85.00
2023-06-15T02:25:49.816Z,86.40
2023-06-15T02:28:18.084Z,87.50
2023-06-15T02:30:46.076Z,87.80
2023-06-15T02:33:16.876Z,88.20
2023-06-15T02:35:45.266Z,87.90
2023-06-15T02:38:13.270Z,88.60
2023-06-15T02:40:41.274Z,88.90
2023-06-15T02:43:09.218Z,88.60
2023-06-15T02:45:38.852Z,88.40
2023-06-15T02:48:07.599Z,89.40
2023-06-15T02:50:37.814Z,89.30
2023-06-15T02:53:05.892Z,89.70
2023-06-15T02:55:38.644Z,89.80
2023-06-15T02:58:08.323Z,89.60
2023-06-15T03:00:37.728Z,88.60
2023-06-15T03:03:05.759Z,87.80
2023-06-15T03:05:34.207Z,88.00
2023-06-15T03:08:03.771Z,88.40
2023-06-15T03:10:31.841Z,88.60
2023-06-15T03:12:59.886Z,89.30
2023-06-15T03:15:28.092Z,90.10
2023-06-15T03:17:56.164Z,90.00
2023-06-15T03:20:24.329Z,90.10
2023-06-15T03:22:52.491Z,90.30
2023-06-15T03:25:22.724Z,90.30
2023-06-15T03:27:54.324Z,90.30
2023-06-15T03:30:22.739Z,91.20
2023-06-15T03:32:51.086Z,91.30
2023-06-15T03:35:22.314Z,91.90
2023-06-15T03:37:50.582Z,91.70
2023-06-15T03:40:18.761Z,92.60
2023-06-15T03:42:48.495Z,92.10
2023-06-15T03:45:16.799Z,91.90
2023-06-15T03:47:44.928Z,91.90
2023-06-15T03:50:12.990Z,91.90
2023-06-15T03:52:41.061Z,91.90
2023-06-15T03:55:09.905Z,92.10
2023-06-15T03:57:38.044Z,92.60
2023-06-15T04:00:09.853Z,92.50
2023-06-15T04:02:38.126Z,92.50
2023-06-15T04:05:07.266Z,92.50
2023-06-15T04:07:35.922Z,92.70
2023-06-15T04:10:05.083Z,92.90
2023-06-15T04:12:33.145Z,93.30
2023-06-15T04:15:01.171Z,93.40
2023-06-15T04:17:30.772Z,93.60
2023-06-15T04:19:59.198Z,94.50
2023-06-15T04:22:27.546Z,94.50
2023-06-15T04:24:55.668Z,94.60
2023-06-15T04:27:24.416Z,94.50
2023-06-15T04:29:54.176Z,94.80
2023-06-15T04:32:24.738Z,94.80
2023-06-15T04:34:55.276Z,95.00
2023-06-15T04:37:24.318Z,95.10
2023-06-15T04:39:52.490Z,95.60
2023-06-15T04:42:20.604Z,95.70
2023-06-15T04:44:49.985Z,95.70
2023-06-15T04:47:18.426Z,95.80
2023-06-15T04:49:46.459Z,95.90
2023-06-15T04:52:15.930Z,95.80
2023-06-15T04:54:44.093Z,95.70
2023-06-15T04:57:12.097Z,95.90
2023-06-15T04:59:40.427Z,96.10
2023-06-15T05:02:08.992Z,96.00
2023-06-15T05:04:37.369Z,96.10
2023-06-15T05:07:05.719Z,96.70
2023-06-15T05:09:35.080Z,96.50
2023-06-15T05:12:03.960Z,96.50
2023-06-15T05:14:31.984Z,96.50
2023-06-15T05:17:04.260Z,96.20
2023-06-15T05:19:32.273Z,95.90
2023-06-15T05:22:01.600Z,96.00
2023-06-15T05:24:29.888Z,95.20
2023-06-15T05:26:59.365Z,95.40
2023-06-15T05:29:27.375Z,94.70
2023-06-15T05:31:56.749Z,94.90
2023-06-15T05:34:24.726Z,92.40
2023-06-15T05:36:57.556Z,92.00
2023-06-15T05:39:26.981Z,91.80
2023-06-15T05:41:55.125Z,91.20
2023-06-15T05:44:24.575Z,90.90
2023-06-15T05:46:54.199Z,90.10
2023-06-15T05:49:22.382Z,89.70
2023-06-15T05:51:50.441Z,90.30
2023-06-15T05:54:18.401Z,89.10
2023-06-15T05:56:46.359Z,88.00
2023-06-15T05:59:31.089Z,86.50
2023-06-15T06:02:02.156Z,86.20
2023-06-15T06:04:30.888Z,85.40
2023-06-15T06:06:59.146Z,86.00
2023-06-15T06:09:27.268Z,84.60
2023-06-15T06:11:55.287Z,84.30
2023-06-15T06:14:23.801Z,84.30
2023-06-15T06:16:52.241Z,84.00
2023-06-15T06:19:21.851Z,84.30
2023-06-15T06:21:49.972Z,82.00
2023-06-15T06:24:21.110Z,83.50
2023-06-15T06:26:51.230Z,83.50
2023-06-15T06:29:19.342Z,82.90
2023-06-15T06:31:47.289Z,82.10
2023-06-15T06:34:15.432Z,82.10
2023-06-15T06:36:44.924Z,82.90
2023-06-15T06:39:12.986Z,81.20
2023-06-15T06:41:41.188Z,81.90
2023-06-15T06:44:12.009Z,81.70
2023-06-15T06:46:39.920Z,82.70
2023-06-15T06:49:07.999Z,83.00
2023-06-15T06:51:37.449Z,80.80
2023-06-15T06:54:07.116Z,80.30
2023-06-15T06:56:35.757Z,79.90
2023-06-15T06:59:04.230Z,79.80
2023-06-15T07:01:32.366Z,78.30
2023-06-15T07:04:00.560Z,78.50
2023-06-15T07:06:28.666Z,80.60
2023-06-15T07:08:56.675Z,80.50
2023-06-15T07:11:27.740Z,78.90
2023-06-15T07:13:56.028Z,78.30
2023-06-15T07:16:24.988Z,78.30
2023-06-15T07:18:53.455Z,79.10
2023-06-15T07:21:22.803Z,78.00
2023-06-15T07:23:54.163Z,78.60
2023-06-15T07:26:23.576Z,77.10
2023-06-15T07:28:53.825Z,77.10
2023-06-15T07:31:22.331Z,77.90
2023-06-15T07:33:50.963Z,76.80
2023-06-15T07:36:19.327Z,76.20
2023-06-15T07:38:47.957Z,74.80
2023-06-15T07:41:16.445Z,74.20
2023-06-15T07:43:45.011Z,74.30
2023-06-15T07:46:15.158Z,74.60
2023-06-15T07:48:46.780Z,75.60
2023-06-15T07:51:28.101Z,75.50
2023-06-15T07:54:03.571Z,75.30
2023-06-15T07:56:32.213Z,74.80
2023-06-15T07:59:01.822Z,74.30
2023-06-15T08:01:32.786Z,75.70
2023-06-15T08:04:03.166Z,74.10
2023-06-15T08:06:32.067Z,73.40
2023-06-15T08:09:03.411Z,74.80
2023-06-15T08:11:31.718Z,73.50
2023-06-15T08:14:00.056Z,72.40
2023-06-15T08:16:28.142Z,72.60
2023-06-15T08:18:57.961Z,73.10
2023-06-15T08:21:26.094Z,66.10
2023-06-15T08:23:55.055Z,66.20
2023-06-15T08:26:24.868Z,63.40
2023-06-15T08:28:55.190Z,63.00
2023-06-15T08:31:24.870Z,67.40
2023-06-15T08:33:54.047Z,62.50
2023-06-15T08:36:24.120Z,63.90
2023-06-15T08:38:52.558Z,64.10
2023-06-15T08:41:24.873Z,64.30
2023-06-15T08:43:55.424Z,63.20
2023-06-15T08:46:25.052Z,61.70
2023-06-15T08:48:54.881Z,59.10
2023-06-15T08:51:25.800Z,60.10
2023-06-15T08:53:56.199Z,62.70
2023-06-15T08:56:24.463Z,60.40
2023-06-15T08:58:52.543Z,62.20
2023-06-15T09:01:23.576Z,63.50
2023-06-15T09:03:54.507Z,60.60
2023-06-15T09:06:25.122Z,61.40
2023-06-15T09:08:54.404Z,62.10
2023-06-15T09:11:24.657Z,59.10
2023-06-15T09:13:52.951Z,59.60
2023-06-15T09:16:21.460Z,59.10
2023-06-15T09:18:53.139Z,59.40
2023-06-15T09:21:23.862Z,59.80
2023-06-15T09:23:53.672Z,58.30
2023-06-15T09:26:27.197Z,57.50
2023-06-15T09:28:57.199Z,58.50
2023-06-15T09:31:32.670Z,58.20
2023-06-15T09:34:05.471Z,58.40
2023-06-15T09:36:40.835Z,59.60
2023-06-15T09:39:11.978Z,58.20
2023-06-15T09:41:53.809Z,59.70
2023-06-15T09:44:23.609Z,59.00
2023-06-15T09:46:53.730Z,57.70
2023-06-15T09:49:24.797Z,57.40
2023-06-15T09:51:56.498Z,58.20
2023-06-15T09:54:29.489Z,58.70
2023-06-15T09:56:59.626Z,58.30
2023-06-15T09:59:27.995Z,57.30
2023-06-15T10:01:57.923Z,56.70
2023-06-15T10:04:29.736Z,57.70
2023-06-15T10:07:01.498Z,57.30
2023-06-15T10:09:41.117Z,56.40
2023-06-15T10:12:14.934Z,57.90
2023-06-15T10:14:50.997Z,57.20
2023-06-15T10:17:25.474Z,55.60
2023-06-15T10:20:01.190Z,56.70
2023-06-15T10:22:31.370Z,58.00
2023-06-15T10:25:02.113Z,56.40
2023-06-15T10:27:30.739Z,57.80
2023-06-15T10:30:09.574Z,56.60
2023-06-15T10:32:45.099Z,57.00
2023-06-15T10:35:21.723Z,55.50
2023-06-15T10:37:58.076Z,56.50
2023-06-15T10:40:32.740Z,56.10
2023-06-15T10:43:03.662Z,55.40
2023-06-15T10:45:34.010Z,53.30
2023-06-15T10:48:04.074Z,53.60
2023-06-15T10:50:42.076Z,53.80
2023-06-15T10:53:25.787Z,52.60
2023-06-15T10:56:00.935Z,53.30
2023-06-15T10:58:30.420Z,53.60
2023-06-15T11:01:10.321Z,53.00
2023-06-15T11:03:42.235Z,51.80
2023-06-15T11:06:16.731Z,54.20
2023-06-15T11:08:49.097Z,54.70
2023-06-15T11:11:22.318Z,52.70
2023-06-15T11:14:05.118Z,51.00
2023-06-15T11:16:35.254Z,50.80
2023-06-15T11:19:30.354Z,53.90
2023-06-15T11:22:05.332Z,51.30
2023-06-15T11:24:39.154Z,51.50
2023-06-15T11:27:11.451Z,51.30
2023-06-15T11:29:42.696Z,50.00
2023-06-15T11:32:12.506Z,50.40
2023-06-15T11:34:41.890Z,51.20
2023-06-15T11:37:14.900Z,49.40
2023-06-15T11:39:45.643Z,48.80
2023-06-15T11:42:16.633Z,50.20
2023-06-15T11:44:45.555Z,49.50
2023-06-15T11:47:14.726Z,49.50
2023-06-15T11:49:43.242Z,47.90
2023-06-15T11:52:12.275Z,48.00
2023-06-15T11:54:52.483Z,47.70
2023-06-15T11:57:24.290Z,48.30
2023-06-15T11:59:53.441Z,49.20
2023-06-15T12:02:22.656Z,50.10
2023-06-15T12:04:51.096Z,50.40
2023-06-15T12:07:32.488Z,51.30
2023-06-15T12:10:06.057Z,52.40
2023-06-15T12:12:37.725Z,51.30
2023-06-15T12:15:08.102Z,50.20
2023-06-15T12:17:40.212Z,49.40
2023-06-15T12:20:11.377Z,50.80
2023-06-15T12:22:44.811Z,50.10
2023-06-15T12:25:15.635Z,50.40
2023-06-15T12:27:46.752Z,50.20
2023-06-15T12:30:17.282Z,49.50
2023-06-15T12:32:47.030Z,48.40
2023-06-15T12:35:29.496Z,48.40
2023-06-15T12:37:59.008Z,48.60
2023-06-15T12:40:27.431Z,46.60
2023-06-15T12:43:01.868Z,46.70
2023-06-15T12:45:30.506Z,47.30
2023-06-15T12:47:59.426Z,45.20
2023-06-15T12:50:27.873Z,45.70
2023-06-15T12:52:58.237Z,46.90
2023-06-15T12:55:27.469Z,41.90
2023-06-15T12:57:56.834Z,42.90
2023-06-15T13:00:30.026Z,44.00
2023-06-15T13:03:00.264Z,42.90
2023-06-15T13:05:30.269Z,42.10
2023-06-15T13:07:58.947Z,41.60
2023-06-15T13:10:27.592Z,43.10
2023-06-15T13:12:56.578Z,42.70
2023-06-15T13:15:26.771Z,42.30
2023-06-15T13:17:55.534Z,42.10
2023-06-15T13:20:23.895Z,43.60
2023-06-15T13:22:53.714Z,42.00
2023-06-15T13:25:22.361Z,43.00
2023-06-15T13:27:50.658Z,43.30
2023-06-15T13:30:19.577Z,45.00
2023-06-15T13:32:49.977Z,46.60
2023-06-15T13:35:18.688Z,46.50
2023-06-15T13:37:47.381Z,45.80
2023-06-15T13:40:16.217Z,44.90
2023-06-15T13:42:44.531Z,44.00
2023-06-15T13:45:15.034Z,43.90
2023-06-15T13:47:45.502Z,44.00
2023-06-15T13:50:17.951Z,45.00
2023-06-15T13:52:50.248Z,43.60
2023-06-15T13:55:19.793Z,44.40
2023-06-15T13:57:49.186Z,43.90
2023-06-15T14:00:19.312Z,43.30
2023-06-15T14:02:48.263Z,42.40
2023-06-15T14:05:18.221Z,43.60
2023-06-15T14:07:46.911Z,40.50
2023-06-15T14:10:15.303Z,41.90
2023-06-15T14:12:43.661Z,40.90
2023-06-15T14:15:12.129Z,40.30
2023-06-15T14:17:41.846Z,40.80
2023-06-15T14:20:13.152Z,40.80
2023-06-15T14:22:42.472Z,41.50
2023-06-15T14:25:13.222Z,40.60
2023-06-15T14:27:46.709Z,42.50
2023-06-15T14:30:16.300Z,42.00
2023-06-15T14:32:44.570Z,41.90
2023-06-15T14:35:12.971Z,41.50
2023-06-15T14:37:42.348Z,43.60
2023-06-15T14:40:11.126Z,42.90
2023-06-15T14:42:48.424Z,42.80
2023-06-15T14:45:17.218Z,41.00
2023-06-15T14:47:45.193Z,39.70
2023-06-15T14:50:13.509Z,39.60
2023-06-15T14:52:43.849Z,39.70
2023-06-15T14:55:12.290Z,38.50
2023-06-15T14:57:40.391Z,41.10
2023-06-15T15:00:10.495Z,39.60
2023-06-15T15:02:38.573Z,38.20
2023-06-15T15:05:07.410Z,38.20
2023-06-15T15:07:38.303Z,40.00
2023-06-15T15:10:10.115Z,39.80
2023-06-15T15:12:38.148Z,41.90
2023-06-15T15:15:06.906Z,38.50
2023-06-15T15:17:34.963Z,38.80
2023-06-15T15:20:03.491Z,38.90
2023-06-15T15:22:31.839Z,37.60
2023-06-15T15:24:59.840Z,37.40
2023-06-15T15:27:29.548Z,37.80
2023-06-15T15:29:58.117Z,37.70
2023-06-15T15:32:26.212Z,37.20
2023-06-15T15:34:54.620Z,37.90
2023-06-15T15:37:23.480Z,38.90
2023-06-15T15:39:51.514Z,36.20
2023-06-15T15:42:19.730Z,37.30
2023-06-15T15:44:49.138Z,35.90
2023-06-15T15:47:17.560Z,37.00
2023-06-15T15:49:45.569Z,36.10
2023-06-15T15:52:13.810Z,36.00
2023-06-15T15:54:41.756Z,35.90
2023-06-15T15:57:09.625Z,36.10
2023-06-15T15:59:39.009Z,35.60
2023-06-15T16:02:10.707Z,35.30
2023-06-15T16:04:39.795Z,35.40
2023-06-15T16:07:08.464Z,35.40
2023-06-15T16:09:36.485Z,35.20
2023-06-15T16:12:05.185Z,35.10
2023-06-15T16:14:33.165Z,36.60
2023-06-15T16:17:04.609Z,37.60
2023-06-15T16:19:34.451Z,39.50
2023-06-15T16:22:02.522Z,39.00
2023-06-15T16:24:30.519Z,38.50
2023-06-15T16:26:58.748Z,37.50
2023-06-15T16:29:26.770Z,38.70
2023-06-15T16:31:55.449Z,38.20
2023-06-15T16:34:23.423Z,38.40
2023-06-15T16:36:52.822Z,38.50
2023-06-15T16:39:45.873Z,39.80
2023-06-15T16:42:15.261Z,39.10
2023-06-15T16:44:43.250Z,39.90
2023-06-15T16:47:11.753Z,38.90
2023-06-15T16:49:41.267Z,40.10
2023-06-15T16:52:12.048Z,41.10
2023-06-15T16:54:40.886Z,40.00
2023-06-15T16:57:11.647Z,41.50
2023-06-15T16:59:41.536Z,41.40
2023-06-15T17:02:11.227Z,41.70
2023-06-15T17:04:39.704Z,41.80
2023-06-15T17:07:09.059Z,39.90
2023-06-15T17:09:42.050Z,41.60
2023-06-15T17:12:11.531Z,42.20
2023-06-15T17:14:39.772Z,41.70
2023-06-15T17:17:08.033Z,42.30
2023-06-15T17:19:36.307Z,43.90
2023-06-15T17:22:04.742Z,45.50
2023-06-15T17:24:32.877Z,44.60
2023-06-15T17:27:03.735Z,44.00
2023-06-15T17:29:32.048Z,44.10
2023-06-15T17:32:00.178Z,43.40
2023-06-15T17:34:28.515Z,43.30
2023-06-15T17:36:56.808Z,43.20
2023-06-15T17:39:24.897Z,43.90
2023-06-15T17:41:52.766Z,44.40
2023-06-15T17:44:22.168Z,44.30
2023-06-15T17:46:51.966Z,44.40
2023-06-15T17:49:20.069Z,45.10
2023-06-15T17:51:48.585Z,45.30
2023-06-15T17:54:17.021Z,45.90
2023-06-15T17:56:47.347Z,44.40
2023-06-15T17:59:15.705Z,45.10
2023-06-15T18:01:45.021Z,45.90
2023-06-15T18:04:13.351Z,46.20
2023-06-15T18:06:41.677Z,47.20
2023-06-15T18:09:14.108Z,46.80
2023-06-15T18:11:42.207Z,47.40
2023-06-15T18:14:10.896Z,48.20
2023-06-15T18:16:39.715Z,47.70
2023-06-15T18:19:09.154Z,47.90
2023-06-15T18:21:37.479Z,48.30
2023-06-15T18:24:06.168Z,48.40
2023-06-15T18:26:34.240Z,48.30
2023-06-15T18:29:02.576Z,49.40
2023-06-15T18:31:30.540Z,50.00
2023-06-15T18:33:58.541Z,50.80
2023-06-15T18:36:29.690Z,50.80
2023-06-15T18:38:57.675Z,51.80
2023-06-15T18:41:26.792Z,50.90
2023-06-15T18:43:54.947Z,50.50
2023-06-15T18:46:23.801Z,50.80
2023-06-15T18:48:52.736Z,50.80
2023-06-15T18:51:21.274Z,50.80
2023-06-15T18:53:50.856Z,50.60
2023-06-15T18:56:18.876Z,50.10
2023-06-15T18:58:47.176Z,50.80
2023-06-15T19:01:16.406Z,50.70
2023-06-15T19:03:44.645Z,51.00
2023-06-15T19:06:12.702Z,52.10
2023-06-15T19:08:40.938Z,52.40
2023-06-15T19:11:10.383Z,50.90
2023-06-15T19:13:38.387Z,50.90
2023-06-15T19:16:07.145Z,51.40
2023-06-15T19:18:35.198Z,51.90
2023-06-15T19:21:05.603Z,52.20
2023-06-15T19:23:33.633Z,51.70
2023-06-15T19:26:01.785Z,51.50
2023-06-15T19:28:31.596Z,52.50
2023-06-15T19:30:59.817Z,51.30
2023-06-15T19:33:28.401Z,51.30
2023-06-15T19:35:57.584Z,51.30
2023-06-15T19:38:32.305Z,52.10
2023-06-15T19:41:00.989Z,51.10
2023-06-15T19:43:31.619Z,52.80
2023-06-15T19:46:01.153Z,53.70
2023-06-15T19:48:29.703Z,52.30
2023-06-15T19:50:58.900Z,51.60
2023-06-15T19:53:31.554Z,52.00
2023-06-15T19:56:04.288Z,52.50
2023-06-15T19:58:35.730Z,53.30
2023-06-15T20:01:04.786Z,53.30
2023-06-15T20:03:34.202Z,53.70
2023-06-15T20:06:03.606Z,53.70
2023-06-15T20:08:35.102Z,54.60
2023-06-15T20:11:04.145Z,54.10
2023-06-15T20:13:35.510Z,54.00
2023-06-15T20:16:07.851Z,54.40
2023-06-15T20:18:36.719Z,54.90
2023-06-15T20:21:05.010Z,54.70
2023-06-15T20:23:33.394Z,55.70
2023-06-15T20:26:01.755Z,55.20
2023-06-15T20:28:33.594Z,55.40
2023-06-15T20:31:05.589Z,55.10
2023-06-15T20:33:35.156Z,55.50
2023-06-15T20:36:05.001Z,55.90
2023-06-15T20:38:35.738Z,56.00
2023-06-15T20:41:06.084Z,55.80
2023-06-15T20:43:34.469Z,55.60
2023-06-15T20:46:04.113Z,55.60
2023-06-15T20:48:35.885Z,55.30
2023-06-15T20:51:06.707Z,56.00
2023-06-15T20:53:35.834Z,56.50
2023-06-15T20:56:06.331Z,56.40
2023-06-15T20:58:35.839Z,56.20
2023-06-15T21:01:06.842Z,56.90
2023-06-15T21:03:35.777Z,56.90
2023-06-15T21:06:05.100Z,56.70
2023-06-15T21:08:34.751Z,56.80
2023-06-15T21:11:03.948Z,57.00
2023-06-15T21:13:34.662Z,56.70
2023-06-15T21:16:06.860Z,57.20
2023-06-15T21:18:36.218Z,56.90
2023-06-15T21:21:19.671Z,57.10
2023-06-15T21:23:48.158Z,56.90
2023-06-15T21:26:16.771Z,56.50
2023-06-15T21:28:44.800Z,56.60
2023-06-15T21:31:15.107Z,56.30
2023-06-15T21:33:43.265Z,56.60
2023-06-15T21:36:11.839Z,56.40
2023-06-15T21:38:40.259Z,56.30
2023-06-15T21:41:08.214Z,56.10
2023-06-15T21:43:39.094Z,55.90
2023-06-15T21:46:07.772Z,55.70
2023-06-15T21:48:37.266Z,55.60
2023-06-15T21:51:05.802Z,55.70
2023-06-15T21:53:33.727Z,55.70
2023-06-15T21:56:01.845Z,55.80
2023-06-15T21:58:30.045Z,55.10
2023-06-15T22:00:57.942Z,55.00
2023-06-15T22:03:26.316Z,55.80
2023-06-15T22:05:55.737Z,55.00
2023-06-15T22:08:23.717Z,54.70
2023-06-15T22:10:51.681Z,54.60
2023-06-15T22:13:19.639Z,54.30
2023-06-15T22:15:47.722Z,54.40
2023-06-15T22:18:16.459Z,54.00
2023-06-15T22:20:50.290Z,55.00
2023-06-15T22:23:21.299Z,54.00
2023-06-15T22:25:55.951Z,53.20
2023-06-15T22:28:24.904Z,53.50
2023-06-15T22:30:53.314Z,53.40
2023-06-15T22:33:24.182Z,53.40
2023-06-15T22:35:52.641Z,54.20
2023-06-15T22:38:21.993Z,53.40
2023-06-15T22:40:50.322Z,53.50
2023-06-15T22:43:18.366Z,53.90
2023-06-15T22:45:46.439Z,53.80
2023-06-15T22:48:15.505Z,53.60
2023-06-15T22:50:45.735Z,53.90
2023-06-15T22:53:14.095Z,53.90
2023-06-15T22:55:43.654Z,53.80
2023-06-15T22:58:11.971Z,54.50
2023-06-15T23:00:40.062Z,54.10
2023-06-15T23:03:08.321Z,54.40
2023-06-15T23:05:45.206Z,54.20
2023-06-15T23:08:22.427Z,53.60
2023-06-15T23:10:53.959Z,53.60
2023-06-15T23:13:22.735Z,54.00
2023-06-15T23:15:53.887Z,53.90
2023-06-15T23:18:22.247Z,54.10
2023-06-15T23:20:50.413Z,54.10
2023-06-15T23:27:00.377Z,54.80
2023-06-15T23:29:28.602Z,54.90
2023-06-15T23:31:56.567Z,54.90
2023-06-15T23:34:24.644Z,55.10
2023-06-15T23:36:52.747Z,54.90
2023-06-15T23:39:20.687Z,55.30
2023-06-15T23:41:48.682Z,54.70
2023-06-15T23:44:18.264Z,55.00
2023-06-15T23:46:46.188Z,55.20
2023-06-15T23:49:15.855Z,55.10
2023-06-15T23:51:44.400Z,54.80
2023-06-15T23:54:13.390Z,55.10
2023-06-15T23:56:41.531Z,55.10
2023-06-15T23:59:09.559Z,55.00
